LAO weather

Laoag International Airport
Laoag City, Ilocos Norte Province, Philippines

Public forecast

Using degrees Celsius for public forecast. Weather courtesy of forecast.io.

METAR (pilot weather report)

Retrieved 2019/01/18 22:00 UTC (51 minutes ago):

RPLI 182200Z 04004KT 8000 FEW018 21/20 Q1014 NOSIG RMK A2994

TAF (pilot weather forecast)

Retrieved 2019/01/18 18:00 UTC (5 hours ago):

TAF RPLI 181700Z 1818/1918 02012KT 9999 FEW018 SCT100 TEMPO 1818/1824 03018G30KT SCT018 BKN100